TimeHST,TemperatureF,Dew PointF,Humidity,Sea Level PressureIn,VisibilityMPH,Wind Direction,Wind SpeedMPH,Gust SpeedMPH,PrecipitationIn,Events,Conditions,WindDirDegrees,DateUTC
12:02 AM,69.8,68.0,94,30.05,10.0,NE,12.7,-,N/A,,Overcast,50,2013-03-25 10:02:00
12:53 AM,70.0,67.1,91,30.04,10.0,NNE,9.2,-,N/A,,Overcast,20,2013-03-25 10:53:00
1:34 AM,69.8,66.2,88,30.03,10.0,North,4.6,-,N/A,,Overcast,10,2013-03-25 11:34:00
1:45 AM,69.8,66.2,88,30.02,10.0,NNW,5.8,-,N/A,,Overcast,340,2013-03-25 11:45:00
1:53 AM,70.0,66.0,87,30.02,10.0,North,5.8,-,N/A,,Overcast,350,2013-03-25 11:53:00
2:06 AM,69.8,66.2,88,30.01,10.0,North,6.9,-,N/A,,Overcast,360,2013-03-25 12:06:00
2:53 AM,70.0,66.6,89,29.99,10.0,North,8.1,-,N/A,,Overcast,350,2013-03-25 12:53:00
3:07 AM,69.8,66.2,88,29.99,10.0,North,5.8,-,N/A,,Overcast,10,2013-03-25 13:07:00
3:35 AM,69.8,66.2,88,29.98,10.0,NE,12.7,-,N/A,,Overcast,40,2013-03-25 13:35:00
3:53 AM,69.1,66.2,91,29.97,10.0,NNE,10.4,-,N/A,,Mostly Cloudy,20,2013-03-25 13:53:00
4:15 AM,69.8,66.2,88,29.98,10.0,North,8.1,-,N/A,,Mostly Cloudy,350,2013-03-25 14:15:00
4:44 AM,69.8,66.2,88,29.98,10.0,NNW,5.8,-,N/A,,Scattered Clouds,340,2013-03-25 14:44:00
4:53 AM,69.1,66.6,92,29.98,10.0,NNW,5.8,-,N/A,,Scattered Clouds,330,2013-03-25 14:53:00
5:16 AM,68.0,66.2,94,29.99,10.0,NNW,5.8,-,N/A,,Overcast,330,2013-03-25 15:16:00
5:24 AM,68.0,66.2,94,29.99,10.0,NNW,4.6,-,N/A,,Overcast,330,2013-03-25 15:24:00
5:53 AM,68.0,66.2,94,29.99,9.0,North,8.1,-,0.00,Rain,Light Rain,350,2013-03-25 15:53:00
6:25 AM,68.0,66.2,94,30.01,10.0,WNW,4.6,-,0.00,,Overcast,290,2013-03-25 16:25:00
6:53 AM,68.0,66.2,94,30.01,10.0,WNW,5.8,-,0.00,,Overcast,290,2013-03-25 16:53:00
7:00 AM,66.2,-9999,N/A,30.02,10.0,WNW,4.6,-,N/A,,Overcast,290,2013-03-25 17:00:00
7:29 AM,68.0,-9999,N/A,30.03,10.0,WNW,4.6,-,N/A,,Mostly Cloudy,300,2013-03-25 17:29:00
7:46 AM,69.8,-9999,N/A,30.03,10.0,NNW,5.8,-,N/A,,Scattered Clouds,330,2013-03-25 17:46:00
7:53 AM,70.0,-9999,N/A,30.03,10.0,NNW,4.6,-,N/A,,Mostly Cloudy,330,2013-03-25 17:53:00
8:04 AM,69.8,-9999,N/A,30.04,10.0,NNW,5.8,-,N/A,,Mostly Cloudy,330,2013-03-25 18:04:00
8:49 AM,69.8,68.0,94,30.06,9.0,NNE,8.1,-,0.00,,Overcast,20,2013-03-25 18:49:00
8:53 AM,70.0,68.0,93,30.05,8.0,NNE,5.8,-,0.00,,Overcast,20,2013-03-25 18:53:00
9:38 AM,71.6,68.0,88,30.06,10.0,NNW,3.5,-,N/A,,Overcast,340,2013-03-25 19:38:00
9:53 AM,72.0,68.0,87,30.06,10.0,NNE,4.6,-,N/A,,Overcast,20,2013-03-25 19:53:00
10:02 AM,73.4,68.0,83,30.06,10.0,NE,3.5,-,N/A,,Overcast,50,2013-03-25 20:02:00
10:22 AM,73.4,68.0,83,30.06,10.0,NNE,4.6,-,N/A,,Overcast,20,2013-03-25 20:22:00
10:53 AM,73.0,68.0,84,30.05,10.0,NE,4.6,-,N/A,,Overcast,40,2013-03-25 20:53:00
11:53 AM,75.0,68.0,79,30.04,10.0,ENE,8.1,-,N/A,,Overcast,70,2013-03-25 21:53:00
12:53 PM,78.1,68.0,71,30.02,10.0,ENE,9.2,-,N/A,,Mostly Cloudy,70,2013-03-25 22:53:00
1:53 PM,75.9,68.0,76,30.00,10.0,ENE,8.1,-,N/A,,Overcast,60,2013-03-25 23:53:00
2:53 PM,75.0,-9999,N/A,29.99,10.0,NE,8.1,-,N/A,,Overcast,40,2013-03-26 00:53:00
3:36 PM,75.2,66.2,73,29.98,10.0,NNE,8.1,-,N/A,,Mostly Cloudy,20,2013-03-26 01:36:00
3:49 PM,75.2,66.2,73,29.98,10.0,NNE,9.2,-,N/A,,Mostly Cloudy,20,2013-03-26 01:49:00
3:53 PM,75.9,66.2,72,29.97,10.0,NNE,9.2,-,N/A,,Scattered Clouds,20,2013-03-26 01:53:00
4:53 PM,75.9,68.0,76,29.97,10.0,NNE,9.2,-,N/A,,Clear,20,2013-03-26 02:53:00
5:53 PM,75.9,68.0,76,29.99,10.0,North,13.8,-,N/A,,Overcast,10,2013-03-26 03:53:00
6:34 PM,71.6,68.0,88,30.01,10.0,North,11.5,-,N/A,,Mostly Cloudy,360,2013-03-26 04:34:00
6:53 PM,72.0,68.0,87,30.01,10.0,North,9.2,-,N/A,,Mostly Cloudy,350,2013-03-26 04:53:00
7:11 PM,71.6,68.0,88,30.01,10.0,North,10.4,-,N/A,,Overcast,360,2013-03-26 05:11:00
7:34 PM,71.6,68.0,88,30.02,10.0,NNE,19.6,-,N/A,,Overcast,20,2013-03-26 05:34:00
7:53 PM,71.1,68.0,90,30.02,10.0,NNE,18.4,-,N/A,,Overcast,20,2013-03-26 05:53:00
8:53 PM,70.0,68.0,93,30.04,4.0,NNE,13.8,-,0.10,Rain,Rain,30,2013-03-26 06:53:00
9:53 PM,70.0,68.0,93,30.04,10.0,NNE,12.7,-,0.01,,Overcast,30,2013-03-26 07:53:00
10:48 PM,71.6,-9999,N/A,30.05,10.0,NNE,15.0,-,0.01,,Overcast,30,2013-03-26 08:48:00
10:53 PM,71.1,-9999,N/A,30.05,10.0,NNE,15.0,-,0.01,,Mostly Cloudy,20,2013-03-26 08:53:00
11:53 PM,71.1,-9999,N/A,30.04,10.0,NNE,13.8,-,N/A,,Overcast,30,2013-03-26 09:53:00